Time;durP1;ratioP1;P1;durP2;ratioP2;P2;SDS_P1;SDS_P2;PMS_P1;PMS_P2;Temp;Humidity;BMP_temperature;BMP_pressure;BME280_temperature;BME280_humidity;BME280_pressure;Samples;Min_cycle;Max_cycle;Signal;HPM_P1;HPM_P2
2021/06/28 00:01:15;;;;;;;;;;;19.80;79.10;;;;;;6244807;23;20087;-77
2021/06/28 00:03:46;;;;;;;6.35;3.33;;;19.70;79.10;;;;;;6254459;22;19919;-77
2021/06/28 00:06:20;;;;;;;5.30;3.20;;;19.70;79.20;;;;;;6281170;22;20031;-77
2021/06/28 00:08:55;;;;;;;6.07;3.03;;;19.70;79.10;;;;;;6284014;22;20023;-77
2021/06/28 00:11:23;;;;;;;9.35;3.75;;;19.70;79.20;;;;;;6281778;22;20231;-76
2021/06/28 00:13:57;;;;;;;6.13;3.70;;;19.70;79.10;;;;;;6283530;22;20312;-77
2021/06/28 00:16:24;;;;;;;7.57;3.58;;;19.80;79.40;;;;;;6284349;22;20253;-77
2021/06/28 00:18:55;;;;;;;7.05;4.13;;;19.80;79.50;;;;;;6257997;22;20033;-77
2021/06/28 00:21:22;;;;;;;6.72;4.03;;;19.70;79.50;;;;;;6282939;22;20362;-77
2021/06/28 00:23:49;;;;;;;7.63;3.42;;;19.80;79.40;;;;;;6283648;22;20046;-77
2021/06/28 00:26:17;;;;;;;5.93;3.20;;;19.60;78.70;;;;;;6281540;22;20346;-77
2021/06/28 00:28:44;;;;;;;7.07;3.17;;;19.40;79.20;;;;;;6283491;22;20023;-77
2021/06/28 00:31:12;;;;;;;6.90;4.20;;;19.30;79.60;;;;;;6255480;22;20034;-78
2021/06/28 00:33:43;;;;;;;6.32;3.42;;;19.20;80.00;;;;;;6283029;22;20030;-77
2021/06/28 00:36:12;;;;;;;7.38;3.63;;;19.30;80.20;;;;;;6283629;22;20015;-77
2021/06/28 00:38:40;;;;;;;7.10;3.22;;;19.20;80.40;;;;;;6283564;22;20015;-77
2021/06/28 00:41:07;;;;;;;5.70;3.13;;;19.10;80.50;;;;;;6283352;22;20019;-77
2021/06/28 00:43:34;;;;;;;5.95;3.40;;;19.10;80.60;;;;;;6282463;22;20311;-78
2021/06/28 00:46:02;;;;;;;9.65;3.40;;;19.10;80.80;;;;;;6283591;22;20026;-77
2021/06/28 00:48:30;;;;;;;7.97;3.25;;;19.10;80.60;;;;;;6282211;22;20350;-78
2021/06/28 00:50:57;;;;;;;8.07;3.25;;;19.10;80.40;;;;;;6282574;22;20315;-77
2021/06/28 00:53:32;;;;;;;5.88;3.33;;;19.10;80.20;;;;;;6256437;22;20047;-77
2021/06/28 00:56:09;;;;;;;7.03;3.10;;;19.00;80.50;;;;;;6254889;22;20015;-77
2021/06/28 00:58:39;;;;;;;4.88;3.30;;;19.10;80.50;;;;;;6278248;22;20086;-77
2021/06/28 01:01:06;;;;;;;5.83;3.30;;;19.10;80.70;;;;;;6247184;22;20027;-77
2021/06/28 01:03:34;;;;;;;5.88;3.58;;;19.00;81.60;;;;;;6252650;22;20027;-77
2021/06/28 01:06:03;;;;;;;5.85;3.88;;;19.00;81.50;;;;;;6279904;22;20303;-77
2021/06/28 01:08:32;;;;;;;9.88;3.42;;;19.00;82.20;;;;;;6249605;22;20039;-77
2021/06/28 01:11:01;;;;;;;9.00;3.95;;;19.00;82.10;;;;;;6278967;22;20024;-77
2021/06/28 01:13:31;;;;;;;8.18;3.92;;;19.00;82.20;;;;;;6253925;22;20234;-77
2021/06/28 01:16:00;;;;;;;7.80;3.42;;;19.00;82.20;;;;;;6280281;22;20039;-77
2021/06/28 01:18:30;;;;;;;10.00;3.92;;;19.00;82.20;;;;;;6254667;22;20027;-77
2021/06/28 01:20:58;;;;;;;5.78;3.60;;;19.00;82.00;;;;;;6281563;22;20015;-77
2021/06/28 01:23:29;;;;;;;10.65;4.03;;;19.00;81.70;;;;;;6279856;22;20342;-77
2021/06/28 01:25:59;;;;;;;7.13;3.60;;;19.00;81.80;;;;;;6279479;22;20027;-77
2021/06/28 01:28:28;;;;;;;7.70;3.45;;;19.00;81.60;;;;;;6253617;22;20042;-77
2021/06/28 01:30:59;;;;;;;6.22;3.03;;;19.00;81.30;;;;;;6278412;22;20077;-77
2021/06/28 01:33:28;;;;;;;8.43;3.83;;;19.10;81.30;;;;;;6280764;22;20023;-78
2021/06/28 01:35:56;;;;;;;7.38;3.28;;;19.10;81.20;;;;;;6282921;22;20027;-78
2021/06/28 01:38:23;;;;;;;9.60;3.20;;;19.10;81.30;;;;;;6280947;22;20028;-77
2021/06/28 01:40:53;;;;;;;8.60;4.05;;;19.00;81.20;;;;;;6280410;22;20216;-78
2021/06/28 01:43:25;;;;;;;7.30;3.70;;;19.00;81.50;;;;;;6276803;22;20317;-77
2021/06/28 01:45:54;;;;;;;6.72;3.35;;;19.00;81.00;;;;;;6281997;22;20024;-77
2021/06/28 01:48:21;;;;;;;6.88;3.55;;;19.00;80.70;;;;;;6282141;22;20252;-77
2021/06/28 01:50:49;;;;;;;5.07;3.08;;;19.00;80.70;;;;;;6256068;22;20043;-77
2021/06/28 01:53:17;;;;;;;6.82;3.45;;;19.00;80.70;;;;;;6256241;22;20247;-77
2021/06/28 01:55:45;;;;;;;7.13;3.90;;;18.90;81.00;;;;;;6284566;22;20011;-77
2021/06/28 01:58:16;;;;;;;6.85;3.58;;;18.90;81.00;;;;;;6255830;22;20034;-77
2021/06/28 02:00:45;;;;;;;7.60;3.67;;;18.80;81.10;;;;;;6277418;22;20342;-77
2021/06/28 02:03:15;;;;;;;8.07;3.40;;;18.70;80.90;;;;;;6253394;22;20047;-77
2021/06/28 02:05:45;;;;;;;8.40;3.55;;;18.60;81.20;;;;;;6282411;22;20069;-77
2021/06/28 02:08:16;;;;;;;6.72;4.00;;;18.60;81.40;;;;;;6280387;22;20031;-77
2021/06/28 02:10:49;;;;;;;5.97;3.47;;;18.50;81.40;;;;;;6280818;22;20023;-77
2021/06/28 02:13:18;;;;;;;5.70;3.40;;;18.50;81.50;;;;;;6255759;22;20294;-78
2021/06/28 02:15:46;;;;;;;7.28;3.70;;;18.50;81.40;;;;;;6282843;22;20027;-78
2021/06/28 02:18:13;;;;;;;6.65;3.10;;;18.50;81.30;;;;;;6282270;22;20023;-78
2021/06/28 02:20:41;;;;;;;7.15;3.80;;;18.40;81.60;;;;;;6281004;22;20023;-77
2021/06/28 02:23:30;;;;;;;7.97;3.42;;;18.30;81.90;;;;;;6280709;22;20023;-77
2021/06/28 02:25:59;;;;;;;9.00;3.67;;;18.30;82.00;;;;;;6282167;22;20345;-77
2021/06/28 02:28:30;;;;;;;7.38;3.33;;;18.30;82.00;;;;;;6254696;22;20026;-77
2021/06/28 02:30:59;;;;;;;6.18;3.22;;;18.30;82.00;;;;;;6254488;22;20023;-78
2021/06/28 02:33:27;;;;;;;6.45;3.20;;;18.30;82.10;;;;;;6279456;22;20015;-77
2021/06/28 02:35:57;;;;;;;9.20;3.88;;;18.30;81.80;;;;;;6281740;22;20067;-77
2021/06/28 02:38:25;;;;;;;7.75;3.33;;;18.30;81.90;;;;;;6279668;22;20327;-77
2021/06/28 02:40:52;;;;;;;6.57;3.63;;;18.30;82.10;;;;;;6281085;22;20023;-77
2021/06/28 02:43:20;;;;;;;8.98;3.78;;;18.20;82.20;;;;;;6280395;22;20024;-77
2021/06/28 02:45:49;;;;;;;7.30;3.80;;;18.20;82.40;;;;;;6251259;22;20361;-77
2021/06/28 02:48:16;;;;;;;7.85;3.88;;;18.20;83.20;;;;;;6277264;22;20028;-77
2021/06/28 02:50:44;;;;;;;9.95;3.83;;;18.30;83.20;;;;;;6279833;22;20027;-78
2021/06/28 02:53:11;;;;;;;8.75;3.80;;;18.30;83.10;;;;;;6280054;22;20270;-78
2021/06/28 02:55:38;;;;;;;8.07;3.75;;;18.30;83.10;;;;;;6281960;22;20020;-78
2021/06/28 02:58:07;;;;;;;7.47;3.35;;;18.40;83.10;;;;;;6254337;22;20027;-78
2021/06/28 03:00:34;;;;;;;7.93;3.88;;;18.30;83.10;;;;;;6275159;22;20242;-78
2021/06/28 03:03:03;;;;;;;9.32;4.30;;;18.30;83.10;;;;;;6276379;22;20023;-77
2021/06/28 03:05:30;;;;;;;6.87;3.73;;;18.30;83.30;;;;;;6227587;22;1240803;-78
2021/06/28 03:07:58;;;;;;;4.93;3.40;;;18.40;83.20;;;;;;6281100;22;20034;-77
2021/06/28 03:10:25;;;;;;;6.07;3.70;;;18.30;83.30;;;;;;6282616;22;20085;-77
2021/06/28 03:12:52;;;;;;;8.20;3.88;;;18.30;83.30;;;;;;6278157;22;20035;-77
2021/06/28 03:15:22;;;;;;;6.85;3.35;;;18.30;83.30;;;;;;6282261;22;20312;-77
2021/06/28 03:17:49;;;;;;;5.95;3.38;;;18.30;83.40;;;;;;6253530;22;20038;-77
2021/06/28 03:20:19;;;;;;;5.97;3.67;;;18.50;82.90;;;;;;6282716;22;20499;-78
2021/06/28 03:22:48;;;;;;;9.75;3.80;;;18.50;82.60;;;;;;6255044;22;20019;-78
2021/06/28 03:25:18;;;;;;;7.07;4.25;;;18.60;82.40;;;;;;6280308;22;20019;-78
2021/06/28 03:27:46;;;;;;;7.93;4.45;;;18.60;82.40;;;;;;6281069;22;20266;-77
2021/06/28 03:30:16;;;;;;;9.20;3.97;;;18.60;82.40;;;;;;6255659;22;20027;-77
2021/06/28 03:32:44;;;;;;;7.45;4.18;;;18.60;82.30;;;;;;6282262;22;20020;-77
2021/06/28 03:35:13;;;;;;;9.15;4.10;;;18.60;82.20;;;;;;6255157;22;20411;-78
2021/06/28 03:37:44;;;;;;;6.97;4.50;;;18.70;81.90;;;;;;6282878;22;20028;-77
2021/06/28 03:40:14;;;;;;;6.50;3.70;;;18.70;82.20;;;;;;6284247;22;20046;-77
2021/06/28 03:42:43;;;;;;;9.40;3.92;;;18.70;81.80;;;;;;6283729;22;20015;-78
2021/06/28 03:45:13;;;;;;;6.07;3.60;;;18.60;81.70;;;;;;6283019;22;20105;-78
2021/06/28 03:47:41;;;;;;;6.75;4.20;;;18.60;82.30;;;;;;6281255;22;20035;-77
2021/06/28 03:50:13;;;;;;;9.05;4.35;;;18.60;82.20;;;;;;6255055;22;20227;-78
2021/06/28 03:52:41;;;;;;;7.07;4.03;;;18.60;82.20;;;;;;6282089;22;20024;-78
2021/06/28 03:55:10;;;;;;;5.53;3.53;;;18.50;82.60;;;;;;6281629;22;20008;-78
2021/06/28 03:57:38;;;;;;;8.73;4.60;;;18.40;82.50;;;;;;6256702;22;20274;-78
2021/06/28 04:00:08;;;;;;;6.45;3.90;;;18.40;82.70;;;;;;6277089;22;20413;-78
2021/06/28 04:02:41;;;;;;;7.20;4.20;;;18.30;83.10;;;;;;6281579;22;20019;-78
2021/06/28 04:05:12;;;;;;;7.18;3.85;;;18.30;83.20;;;;;;6282690;22;20026;-78
2021/06/28 04:07:43;;;;;;;6.75;4.22;;;18.30;83.10;;;;;;6255900;22;20027;-78
2021/06/28 04:10:13;;;;;;;7.53;3.95;;;18.40;83.10;;;;;;6283856;22;20016;-79
2021/06/28 04:12:42;;;;;;;9.18;4.60;;;18.40;83.10;;;;;;6283574;22;20354;-80
2021/06/28 04:15:11;;;;;;;9.10;3.83;;;18.30;83.20;;;;;;6283708;22;20073;-78
2021/06/28 04:17:40;;;;;;;11.25;4.13;;;18.30;83.40;;;;;;6256164;22;20054;-78
2021/06/28 04:20:10;;;;;;;10.05;4.03;;;18.30;83.40;;;;;;6283497;22;20091;-78
2021/06/28 04:22:38;;;;;;;;;;;18.40;83.00;;;;;;6256134;22;20307;-78
2021/06/28 04:25:09;;;;;;;6.60;3.45;;;18.50;83.00;;;;;;6255257;22;19926;-77
2021/06/28 04:27:36;;;;;;;7.60;4.32;;;18.50;82.70;;;;;;6281473;22;20041;-77
2021/06/28 04:30:06;;;;;;;7.63;4.25;;;18.50;82.50;;;;;;6282704;22;20073;-77
2021/06/28 04:32:41;;;;;;;6.60;3.78;;;18.50;82.50;;;;;;6254719;22;20054;-78
2021/06/28 04:35:10;;;;;;;9.23;3.88;;;18.50;82.50;;;;;;6280533;22;20440;-77
2021/06/28 04:37:38;;;;;;;7.13;4.23;;;18.50;82.70;;;;;;6280413;22;20213;-77
2021/06/28 04:40:10;;;;;;;5.55;3.55;;;18.40;82.30;;;;;;6281304;22;20399;-77
2021/06/28 04:42:37;;;;;;;6.50;4.07;;;18.40;82.50;;;;;;6254828;22;20034;-77
2021/06/28 04:45:06;;;;;;;8.35;4.30;;;18.60;82.60;;;;;;6253616;22;20039;-78
2021/06/28 04:47:33;;;;;;;11.27;3.97;;;18.60;82.30;;;;;;6277048;22;20337;-77
2021/06/28 04:50:03;;;;;;;10.30;4.60;;;18.70;81.90;;;;;;6251811;22;20027;-78
2021/06/28 04:52:31;;;;;;;5.95;3.80;;;18.80;81.50;;;;;;6279329;22;20066;-78
2021/06/28 04:54:59;;;;;;;6.85;4.10;;;18.80;81.50;;;;;;6253464;22;20038;-77
2021/06/28 04:57:28;;;;;;;8.85;4.20;;;18.90;81.40;;;;;;6252764;22;20667;-78
2021/06/28 04:59:55;;;;;;;7.97;4.28;;;19.00;81.30;;;;;;6252706;22;20028;-77
2021/06/28 05:02:22;;;;;;;7.65;3.97;;;19.00;81.40;;;;;;6249315;22;20027;-78
2021/06/28 05:04:50;;;;;;;8.43;4.07;;;19.10;80.90;;;;;;6279182;22;20028;-77
2021/06/28 05:07:17;;;;;;;8.18;4.25;;;19.20;80.10;;;;;;6279839;22;20054;-77
2021/06/28 05:09:45;;;;;;;10.25;4.50;;;19.20;80.00;;;;;;6279430;22;20023;-77
2021/06/28 05:12:14;;;;;;;7.47;4.30;;;19.20;79.80;;;;;;6279572;22;20020;-77
2021/06/28 05:14:44;;;;;;;7.78;4.32;;;19.30;79.40;;;;;;6281367;22;20023;-77
2021/06/28 05:17:12;;;;;;;;;;;19.30;79.50;;;;;;6278891;22;20265;-77
2021/06/28 05:19:39;;;;;;;6.72;3.95;;;19.40;79.30;;;;;;6276875;22;19911;-77
2021/06/28 05:22:06;;;;;;;6.65;3.97;;;19.50;78.90;;;;;;6277953;22;20365;-77
2021/06/28 05:24:34;;;;;;;9.15;4.32;;;19.60;78.70;;;;;;6282422;22;20303;-78
2021/06/28 05:27:01;;;;;;;8.02;3.90;;;19.70;78.00;;;;;;6252823;22;20022;-77
2021/06/28 05:29:30;;;;;;;8.45;4.78;;;19.80;78.10;;;;;;6254387;22;20290;-76
2021/06/28 05:31:58;;;;;;;8.23;3.92;;;19.80;78.10;;;;;;6279495;22;20220;-77
2021/06/28 05:34:26;;;;;;;11.10;4.25;;;19.80;78.20;;;;;;6277043;22;20322;-76
2021/06/28 05:36:53;;;;;;;7.57;4.28;;;19.90;78.30;;;;;;6276599;22;20073;-76
2021/06/28 05:39:20;;;;;;;7.90;4.07;;;19.90;78.20;;;;;;6277186;22;20030;-77
2021/06/28 05:41:48;;;;;;;7.65;4.30;;;20.10;77.90;;;;;;6253586;22;20028;-77
2021/06/28 05:44:15;;;;;;;10.80;4.70;;;20.30;76.90;;;;;;6251685;22;20035;-77
2021/06/28 05:46:42;;;;;;;7.30;3.92;;;20.40;76.40;;;;;;6276936;22;20061;-77
2021/06/28 05:49:11;;;;;;;7.50;3.90;;;20.60;75.80;;;;;;6277335;22;20023;-77
2021/06/28 05:51:38;;;;;;;7.60;4.28;;;20.70;75.10;;;;;;6251746;22;20028;-77
2021/06/28 05:54:06;;;;;;;8.05;4.60;;;20.90;74.60;;;;;;6277062;22;20043;-77
2021/06/28 05:56:34;;;;;;;7.55;4.25;;;21.00;74.00;;;;;;6277214;22;20342;-76
2021/06/28 05:59:01;;;;;;;7.63;4.38;;;21.10;73.30;;;;;;6278131;22;20027;-77
2021/06/28 06:01:28;;;;;;;6.97;4.30;;;21.20;73.10;;;;;;6247307;22;20031;-76
2021/06/28 06:03:56;;;;;;;7.35;4.35;;;21.40;72.60;;;;;;6277528;22;20157;-76
2021/06/28 06:06:24;;;;;;;6.43;3.92;;;21.50;72.00;;;;;;6252034;22;20043;-76
2021/06/28 06:08:51;;;;;;;8.23;4.32;;;21.60;71.50;;;;;;6251956;22;20035;-77
2021/06/28 06:11:19;;;;;;;8.40;4.53;;;21.80;71.30;;;;;;6280280;22;20034;-77
2021/06/28 06:13:46;;;;;;;8.27;4.18;;;21.70;70.90;;;;;;6279604;22;20133;-78
2021/06/28 06:16:14;;;;;;;6.95;4.05;;;21.80;71.50;;;;;;6278126;22;20019;-77
2021/06/28 06:18:41;;;;;;;7.85;4.35;;;21.90;71.00;;;;;;6251400;22;20028;-77
2021/06/28 06:21:09;;;;;;;11.25;4.57;;;22.10;71.20;;;;;;6277084;22;20088;-77
2021/06/28 06:23:37;;;;;;;8.18;4.18;;;22.10;70.90;;;;;;6276242;22;20065;-78
2021/06/28 06:26:05;;;;;;;7.40;3.90;;;22.10;70.40;;;;;;6276201;22;20019;-77
2021/06/28 06:28:32;;;;;;;7.05;3.80;;;22.20;69.70;;;;;;6274872;22;20341;-77
2021/06/28 06:30:59;;;;;;;6.93;4.25;;;22.30;69.70;;;;;;6279357;22;20038;-77
2021/06/28 06:33:26;;;;;;;6.97;3.88;;;22.40;69.20;;;;;;6278730;22;20023;-77
2021/06/28 06:35:54;;;;;;;9.68;4.38;;;22.40;69.20;;;;;;6250517;22;20023;-77
2021/06/28 06:38:21;;;;;;;8.80;4.18;;;22.60;68.90;;;;;;6277811;22;20024;-77
2021/06/28 06:40:52;;;;;;;7.97;4.30;;;22.70;68.60;;;;;;6279187;22;20372;-77
2021/06/28 06:43:20;;;;;;;6.85;4.47;;;22.80;67.90;;;;;;6251523;22;20234;-77
2021/06/28 06:45:47;;;;;;;8.07;4.72;;;22.80;67.30;;;;;;6279171;22;20126;-77
2021/06/28 06:48:15;;;;;;;6.47;4.05;;;23.00;67.10;;;;;;6277445;22;20230;-77
2021/06/28 06:50:42;;;;;;;7.57;4.43;;;23.00;66.90;;;;;;6277180;22;20243;-77
2021/06/28 06:53:10;;;;;;;7.35;4.22;;;23.10;66.80;;;;;;6274684;22;20019;-77
2021/06/28 06:55:37;;;;;;;6.20;3.97;;;23.20;66.40;;;;;;6250877;22;20032;-77
2021/06/28 06:58:08;;;;;;;7.85;4.40;;;23.20;66.30;;;;;;6275945;22;20020;-78
2021/06/28 07:00:36;;;;;;;5.35;3.80;;;23.30;66.00;;;;;;6271784;22;20015;-77
2021/06/28 07:03:03;;;;;;;8.00;4.13;;;23.40;66.20;;;;;;6275612;22;20397;-77
2021/06/28 07:05:31;;;;;;;5.72;3.80;;;23.60;65.20;;;;;;6276936;22;20331;-77
2021/06/28 07:07:58;;;;;;;7.75;4.45;;;23.60;65.30;;;;;;6275493;22;20024;-77
2021/06/28 07:10:25;;;;;;;4.88;3.47;;;23.70;64.70;;;;;;6277613;22;20024;-77
2021/06/28 07:12:53;;;;;;;6.47;4.40;;;23.70;64.30;;;;;;6280088;22;20547;-79
2021/06/28 07:15:22;;;;;;;7.38;4.20;;;24.00;64.10;;;;;;6279658;22;20063;-78
2021/06/28 07:17:50;;;;;;;5.75;4.00;;;24.10;64.10;;;;;;6251612;22;20016;-77
2021/06/28 07:20:21;;;;;;;6.25;4.35;;;24.30;64.00;;;;;;6278229;22;20327;-77
2021/06/28 07:22:49;;;;;;;8.27;4.10;;;24.50;62.70;;;;;;6276789;22;20028;-77
2021/06/28 07:25:17;;;;;;;5.85;4.10;;;24.70;61.60;;;;;;6278805;22;20024;-77
2021/06/28 07:27:45;;;;;;;6.78;4.15;;;24.80;61.20;;;;;;6278890;22;20043;-77
2021/06/28 07:30:14;;;;;;;9.40;4.35;;;25.10;60.90;;;;;;6252509;22;20027;-77
2021/06/28 07:32:43;;;;;;;;;;;25.30;60.40;;;;;;6282380;22;20019;-77
2021/06/28 07:35:12;;;;;;;8.05;3.85;;;25.50;60.20;;;;;;6253546;22;20084;-77
2021/06/28 07:37:39;;;;;;;7.80;3.75;;;25.70;59.50;;;;;;6253066;22;20046;-77
2021/06/28 07:40:09;;;;;;;6.25;4.20;;;26.00;57.80;;;;;;6281278;22;20350;-77
2021/06/28 07:42:37;;;;;;;6.50;4.03;;;26.00;58.10;;;;;;6278279;22;20034;-77
2021/06/28 07:45:05;;;;;;;5.90;3.80;;;26.30;57.80;;;;;;6279007;22;20024;-77
2021/06/28 07:47:32;;;;;;;6.22;3.90;;;26.60;58.00;;;;;;6276073;22;20210;-77
2021/06/28 07:50:01;;;;;;;6.97;4.38;;;27.10;56.70;;;;;;6277046;22;20015;-77
2021/06/28 07:52:30;;;;;;;5.03;3.40;;;27.30;55.20;;;;;;6278049;22;20330;-77
2021/06/28 07:54:59;;;;;;;4.65;3.28;;;27.50;55.40;;;;;;6278435;22;20024;-77
2021/06/28 07:57:27;;;;;;;5.75;3.33;;;27.60;55.10;;;;;;6276082;22;20343;-76
2021/06/28 07:59:54;;;;;;;5.70;3.72;;;27.60;54.40;;;;;;6279114;22;20015;-77
2021/06/28 08:02:21;;;;;;;5.68;3.72;;;27.60;54.70;;;;;;6271012;22;20062;-77
2021/06/28 08:04:49;;;;;;;6.10;3.88;;;27.60;53.90;;;;;;6278170;22;20046;-77
2021/06/28 08:07:17;;;;;;;5.05;3.53;;;27.20;54.80;;;;;;6277689;22;20507;-76
2021/06/28 08:09:44;;;;;;;5.45;4.03;;;27.00;55.80;;;;;;6276845;22;20023;-77
2021/06/28 08:12:12;;;;;;;8.05;4.40;;;26.80;56.10;;;;;;6274335;22;20047;-76
2021/06/28 08:14:39;;;;;;;5.85;3.38;;;26.50;55.90;;;;;;6276937;22;20022;-76
2021/06/28 08:17:06;;;;;;;5.05;3.47;;;26.20;57.70;;;;;;6275079;22;20012;-77
2021/06/28 08:19:33;;;;;;;6.07;4.18;;;26.30;57.10;;;;;;6274712;22;20395;-76
2021/06/28 08:22:00;;;;;;;4.97;3.78;;;26.50;56.90;;;;;;6274069;22;20027;-78
2021/06/28 08:24:30;;;;;;;6.70;4.03;;;26.70;56.80;;;;;;6275032;22;20090;-76
2021/06/28 08:26:57;;;;;;;7.72;4.00;;;26.60;56.90;;;;;;6274561;22;20038;-78
2021/06/28 08:29:24;;;;;;;6.78;3.58;;;26.70;56.30;;;;;;6274285;22;20035;-75
2021/06/28 08:31:51;;;;;;;5.68;3.70;;;26.80;55.70;;;;;;6278575;22;20023;-77
2021/06/28 08:34:19;;;;;;;6.00;3.65;;;26.50;57.30;;;;;;6277416;22;20062;-77
2021/06/28 08:36:47;;;;;;;6.15;3.78;;;26.30;56.10;;;;;;6276829;22;20231;-79
2021/06/28 08:39:15;;;;;;;6.10;3.63;;;26.30;56.80;;;;;;6279625;22;20390;-78
2021/06/28 08:41:48;;;;;;;6.83;3.37;;;26.50;56.40;;;;;;6278145;22;20016;-78
2021/06/28 08:44:15;;;;;;;7.30;3.35;;;26.80;55.30;;;;;;6275425;22;20404;-77
2021/06/28 08:46:43;;;;;;;5.88;3.55;;;26.90;55.00;;;;;;6275480;22;20020;-77
2021/06/28 08:49:11;;;;;;;5.90;3.72;;;26.80;55.60;;;;;;6275204;22;20326;-77
2021/06/28 08:51:39;;;;;;;5.60;3.40;;;27.00;55.50;;;;;;6248272;22;20043;-77
2021/06/28 08:54:09;;;;;;;6.63;3.85;;;27.20;55.20;;;;;;6275098;22;20024;-76
2021/06/28 08:56:39;;;;;;;5.75;3.50;;;27.20;54.50;;;;;;6274158;22;20030;-78
2021/06/28 08:59:08;;;;;;;5.88;3.78;;;27.30;54.20;;;;;;6275956;22;20069;-77
2021/06/28 09:01:36;;;;;;;6.13;3.33;;;27.20;53.80;;;;;;6246820;22;20020;-78
2021/06/28 09:04:05;;;;;;;5.15;3.50;;;27.30;53.20;;;;;;6277759;22;20024;-77
2021/06/28 09:06:32;;;;;;;4.68;2.90;;;27.40;52.80;;;;;;6277377;22;20030;-77
2021/06/28 09:09:01;;;;;;;10.52;5.47;;;27.50;52.40;;;;;;6279682;22;20208;-77
2021/06/28 09:11:28;;;;;;;;;;;27.60;52.50;;;;;;6278230;22;20023;-77
2021/06/28 09:13:57;;;;;;;4.90;3.60;;;28.30;51.90;;;;;;6251174;22;19926;-77
2021/06/28 09:16:28;;;;;;;5.00;3.55;;;28.50;50.90;;;;;;6278241;22;20024;-77
2021/06/28 09:18:58;;;;;;;5.72;4.38;;;28.80;49.80;;;;;;6277909;22;20192;-77
2021/06/28 09:21:31;;;;;;;4.63;3.10;;;28.80;50.10;;;;;;6277754;22;20299;-77
2021/06/28 09:24:00;;;;;;;6.78;4.25;;;28.60;50.90;;;;;;6277259;22;20027;-76
2021/06/28 09:26:32;;;;;;;5.05;3.20;;;28.50;51.20;;;;;;6276653;22;20397;-76
2021/06/28 09:29:03;;;;;;;5.43;3.67;;;28.30;51.20;;;;;;6279390;22;20023;-77
2021/06/28 09:31:35;;;;;;;6.55;3.90;;;28.10;52.20;;;;;;6278919;22;20318;-77
2021/06/28 09:34:21;;;;;;;5.32;3.40;;;28.00;53.20;;;;;;6255089;22;20035;-78
2021/06/28 09:36:54;;;;;;;6.28;3.92;;;28.30;52.20;;;;;;6281324;22;20207;-78
2021/06/28 09:39:25;;;;;;;6.82;3.08;;;28.60;50.70;;;;;;6281348;22;20102;-77
2021/06/28 09:41:58;;;;;;;6.35;3.50;;;28.80;50.30;;;;;;6280575;22;20035;-78
2021/06/28 09:44:26;;;;;;;4.80;3.40;;;29.00;50.00;;;;;;6281156;22;20023;-77
2021/06/28 09:47:13;;;;;;;6.10;3.72;;;29.10;49.70;;;;;;6283577;22;20011;-77
2021/06/28 09:49:42;;;;;;;5.40;3.00;;;29.10;49.00;;;;;;6282154;22;20024;-77
2021/06/28 09:52:10;;;;;;;5.25;3.35;;;29.20;49.60;;;;;;6277658;22;20082;-78
2021/06/28 09:54:41;;;;;;;5.30;3.65;;;29.50;48.80;;;;;;6278839;22;20015;-77
2021/06/28 09:57:09;;;;;;;6.00;3.58;;;29.50;49.00;;;;;;6280857;22;20027;-77
2021/06/28 09:59:39;;;;;;;4.95;3.50;;;29.50;49.20;;;;;;6251524;22;20020;-78
2021/06/28 10:02:17;;;;;;;7.80;3.65;;;29.50;49.10;;;;;;6244137;22;20050;-77
2021/06/28 10:04:57;;;;;;;5.25;3.35;;;29.50;49.30;;;;;;6278560;22;20039;-77
2021/06/28 10:07:27;;;;;;;6.68;3.40;;;29.50;48.90;;;;;;6278099;22;20258;-77
2021/06/28 10:10:21;;;;;;;8.80;3.63;;;29.70;48.50;;;;;;6252405;22;20354;-77
2021/06/28 10:12:59;;;;;;;5.68;3.78;;;29.90;47.00;;;;;;6278287;22;20023;-77
2021/06/28 10:15:29;;;;;;;4.82;3.25;;;30.20;46.70;;;;;;6278447;22;20015;-77
2021/06/28 10:17:58;;;;;;;6.72;3.08;;;30.70;46.70;;;;;;6278153;22;20019;-77
2021/06/28 10:20:29;;;;;;;5.50;3.33;;;31.10;45.40;;;;;;6276976;22;20034;-77
2021/06/28 10:22:57;;;;;;;8.10;3.13;;;31.50;45.00;;;;;;6277074;22;20039;-77
2021/06/28 10:25:26;;;;;;;6.75;3.65;;;31.80;44.30;;;;;;6280501;22;20027;-77
2021/06/28 10:27:54;;;;;;;7.60;3.47;;;32.00;43.20;;;;;;6277636;22;20208;-77
2021/06/28 10:30:25;;;;;;;5.65;3.08;;;32.50;42.10;;;;;;6249045;22;20028;-77
2021/06/28 10:33:01;;;;;;;5.53;3.60;;;33.00;41.10;;;;;;6280500;22;20079;-77
2021/06/28 10:35:32;;;;;;;4.25;2.97;;;33.20;40.80;;;;;;6252661;22;20083;-78
2021/06/28 10:38:02;;;;;;;7.13;3.65;;;33.40;40.60;;;;;;6283522;22;20048;-77
2021/06/28 10:40:43;;;;;;;5.07;3.10;;;33.60;39.40;;;;;;6251332;22;20034;-77
2021/06/28 10:43:27;;;;;;;4.43;2.92;;;34.20;39.90;;;;;;6282021;22;20340;-77
2021/06/28 10:45:54;;;;;;;4.68;2.88;;;35.20;36.60;;;;;;6251474;22;20028;-77
2021/06/28 10:48:24;;;;;;;5.18;3.10;;;36.20;35.00;;;;;;6278787;22;20019;-78
2021/06/28 10:50:58;;;;;;;5.80;3.53;;;36.80;34.20;;;;;;6277344;22;20376;-77
2021/06/28 10:54:01;;;;;;;3.83;2.70;;;37.70;32.80;;;;;;6281082;22;20200;-77
2021/06/28 10:56:57;;;;;;;4.03;2.90;;;37.70;31.80;;;;;;6277967;22;20067;-77
2021/06/28 10:59:30;;;;;;;5.15;2.72;;;37.40;32.10;;;;;;6207070;22;20023;-77
2021/06/28 11:02:03;;;;;;;5.88;3.10;;;37.30;31.90;;;;;;6247542;22;20069;-77
2021/06/28 11:04:34;;;;;;;7.50;3.00;;;37.60;32.10;;;;;;6246403;23;20081;-77
2021/06/28 11:07:15;;;;;;;4.43;3.13;;;37.00;33.20;;;;;;6248444;23;20333;-77
2021/06/28 11:09:46;;;;;;;4.45;3.00;;;35.60;35.10;;;;;;6246219;23;20020;-77
2021/06/28 11:12:25;;;;;;;4.00;2.83;;;36.10;33.90;;;;;;6247653;23;20025;-77
2021/06/28 11:14:54;;;;;;;4.63;3.22;;;36.70;33.50;;;;;;6248705;23;20031;-77
2021/06/28 11:17:25;;;;;;;3.90;2.80;;;37.00;33.10;;;;;;6247160;23;20167;-76
2021/06/28 11:20:04;;;;;;;5.22;3.33;;;36.60;33.70;;;;;;6246538;23;20024;-77
2021/06/28 11:22:37;;;;;;;4.35;3.05;;;36.60;34.40;;;;;;6248903;23;20031;-77
2021/06/28 11:25:13;;;;;;;5.85;3.55;;;37.60;32.90;;;;;;6249464;23;20211;-79
2021/06/28 11:27:42;;;;;;;4.88;3.25;;;39.20;30.90;;;;;;6244568;23;20051;-78
2021/06/28 11:30:24;;;;;;;5.10;3.13;;;39.50;29.40;;;;;;6247784;23;20012;-78
2021/06/28 11:33:06;;;;;;;4.63;3.25;;;39.30;30.20;;;;;;6248709;22;20304;-78
2021/06/28 11:35:41;;;;;;;5.50;3.40;;;39.50;29.50;;;;;;6247060;23;20231;-78
2021/06/28 11:38:37;;;;;;;4.35;2.90;;;39.70;29.50;;;;;;6250711;23;20303;-78
2021/06/28 11:41:15;;;;;;;7.38;3.40;;;38.70;29.90;;;;;;6233259;22;20058;-78
2021/06/28 11:43:44;;;;;;;3.28;2.58;;;38.80;29.90;;;;;;6247889;23;20026;-78
2021/06/28 11:46:18;;;;;;;5.40;3.20;;;39.20;29.70;;;;;;6248887;23;20016;-78
2021/06/28 11:48:48;;;;;;;6.03;3.10;;;40.00;28.00;;;;;;6245953;23;20024;-78
2021/06/28 11:51:20;;;;;;;5.03;3.17;;;39.70;28.90;;;;;;6243835;23;20103;-78
2021/06/28 11:53:54;;;;;;;4.30;3.05;;;37.90;30.50;;;;;;6247866;22;20059;-77
2021/06/28 11:56:31;;;;;;;4.15;2.60;;;36.00;33.80;;;;;;6244708;23;20055;-78
2021/06/28 11:59:01;;;;;;;4.82;2.95;;;35.50;34.50;;;;;;6245379;23;20266;-78
2021/06/28 12:01:32;;;;;;;4.15;2.88;;;35.80;34.60;;;;;;6242718;22;20024;-78
2021/06/28 12:04:01;;;;;;;4.53;2.90;;;35.30;35.20;;;;;;6256080;22;20260;-78
2021/06/28 12:06:33;;;;;;;4.38;2.85;;;35.00;35.80;;;;;;6249205;22;20280;-77
2021/06/28 12:09:07;;;;;;;4.18;2.80;;;34.80;35.80;;;;;;6276202;22;20514;-77
2021/06/28 12:11:34;;;;;;;4.82;2.97;;;34.30;36.50;;;;;;6274295;22;20227;-77
2021/06/28 12:14:02;;;;;;;4.90;2.88;;;34.20;37.40;;;;;;6272845;22;20110;-77
2021/06/28 12:16:30;;;;;;;4.82;2.97;;;33.70;38.90;;;;;;6275608;22;20200;-77
2021/06/28 12:19:06;;;;;;;9.50;3.03;;;32.60;40.70;;;;;;6275318;22;20027;-77
2021/06/28 12:21:37;;;;;;;4.10;3.10;;;32.50;41.90;;;;;;6247027;22;20183;-77
2021/06/28 12:24:11;;;;;;;4.53;3.05;;;32.50;40.90;;;;;;6249025;22;20027;-76
2021/06/28 12:26:58;;;;;;;4.80;2.88;;;32.80;40.60;;;;;;6249044;22;20561;-76
2021/06/28 12:29:35;;;;;;;4.30;2.75;;;34.10;37.70;;;;;;6275433;22;20019;-77
2021/06/28 12:32:11;;;;;;;4.45;3.10;;;37.70;32.80;;;;;;6276811;22;20304;-76
2021/06/28 12:34:40;;;;;;;4.18;2.90;;;38.20;31.30;;;;;;6275538;22;20023;-77
2021/06/28 12:37:09;;;;;;;5.05;3.30;;;37.70;33.20;;;;;;6251022;22;20061;-77
2021/06/28 12:39:36;;;;;;;5.57;3.20;;;37.10;32.20;;;;;;6279210;22;20019;-77
2021/06/28 12:42:12;;;;;;;5.38;3.00;;;36.80;32.10;;;;;;6277832;22;20300;-77
2021/06/28 12:44:40;;;;;;;4.53;2.90;;;38.50;29.90;;;;;;6278390;22;20030;-77
2021/06/28 12:47:10;;;;;;;3.78;2.80;;;41.00;27.10;;;;;;6251208;22;20027;-77
2021/06/28 12:49:37;;;;;;;4.03;2.70;;;42.00;25.70;;;;;;6273622;22;20294;-77
2021/06/28 12:52:34;;;;;;;5.37;2.33;;;42.00;26.00;;;;;;6247187;22;20269;-77
2021/06/28 12:55:14;;;;;;;4.68;2.85;;;38.80;28.30;;;;;;6207855;22;20054;-77
2021/06/28 12:57:43;;;;;;;3.80;2.65;;;38.40;29.10;;;;;;6277545;22;20349;-77
2021/06/28 13:00:24;;;;;;;3.75;2.60;;;37.60;30.90;;;;;;6272119;22;20287;-77
2021/06/28 13:02:58;;;;;;;3.70;2.25;;;37.50;31.40;;;;;;6280446;22;20231;-77